Time;durP1;ratioP1;P1;durP2;ratioP2;P2;SDS_P1;SDS_P2;PMS_P1;PMS_P2;Temp;Humidity;BMP_temperature;BMP_pressure;BME280_temperature;BME280_humidity;BME280_pressure;Samples;Min_cycle;Max_cycle;Signal;HPM_P1;HPM_P2
2023/11/08 00:00:03;;;;;;;19.42;17.95;;;8.20;99.90;;;;;;5031333;28;20135;-77
2023/11/08 00:02:38;;;;;;;18.40;17.05;;;8.30;99.90;;;;;;5026757;28;20189;-78
2023/11/08 00:05:05;;;;;;;18.25;17.13;;;8.30;99.90;;;;;;5021721;28;20059;-77
2023/11/08 00:07:32;;;;;;;19.20;17.88;;;8.30;99.90;;;;;;5014902;28;20537;-76
2023/11/08 00:09:59;;;;;;;18.63;17.25;;;8.20;99.90;;;;;;5022285;28;20037;-76
2023/11/08 00:12:26;;;;;;;17.17;16.17;;;8.30;99.90;;;;;;5010674;28;20045;-77
2023/11/08 00:14:52;;;;;;;18.50;17.02;;;8.30;99.90;;;;;;5022775;28;20060;-76
2023/11/08 00:17:20;;;;;;;18.33;16.85;;;8.30;99.90;;;;;;5027645;28;20481;-77
2023/11/08 00:19:46;;;;;;;17.65;16.42;;;8.30;99.90;;;;;;5022972;28;20045;-77
2023/11/08 00:22:13;;;;;;;18.10;17.00;;;8.30;99.90;;;;;;5024329;28;20395;-77
2023/11/08 00:24:40;;;;;;;17.80;16.77;;;8.30;99.90;;;;;;5019777;28;20057;-75
2023/11/08 00:27:07;;;;;;;17.70;16.60;;;8.40;99.90;;;;;;5015348;28;20048;-75
2023/11/08 00:29:34;;;;;;;17.25;16.00;;;8.20;99.90;;;;;;5022140;28;20149;-76
2023/11/08 00:32:00;;;;;;;15.68;14.57;;;8.20;99.90;;;;;;5018360;28;20637;-74
2023/11/08 00:34:27;;;;;;;18.30;15.02;;;8.10;99.90;;;;;;5027495;28;20056;-75
2023/11/08 00:36:55;;;;;;;14.80;13.60;;;8.00;99.90;;;;;;5027164;28;20049;-76
2023/11/08 00:39:22;;;;;;;16.13;14.45;;;8.00;99.90;;;;;;5009089;28;20045;-75
2023/11/08 00:41:49;;;;;;;14.73;12.15;;;7.90;99.90;;;;;;5009905;28;20071;-74
2023/11/08 00:44:16;;;;;;;12.93;12.00;;;7.90;99.90;;;;;;5018349;28;20139;-75
2023/11/08 00:46:43;;;;;;;13.50;12.32;;;7.90;99.90;;;;;;5022270;28;20041;-75
2023/11/08 00:49:12;;;;;;;13.55;12.23;;;7.90;99.90;;;;;;5009773;28;20051;-75
2023/11/08 00:51:40;;;;;;;14.18;11.90;;;7.90;99.90;;;;;;5020559;28;20048;-75
2023/11/08 00:54:07;;;;;;;13.52;12.43;;;7.90;99.90;;;;;;5020637;28;20052;-76
2023/11/08 00:56:34;;;;;;;14.82;13.50;;;7.90;99.90;;;;;;5011785;28;20041;-77
2023/11/08 00:59:01;;;;;;;12.85;11.73;;;7.90;99.90;;;;;;5030351;28;20041;-75
2023/11/08 01:01:30;;;;;;;14.20;12.98;;;7.90;99.90;;;;;;5034412;28;20052;-76
2023/11/08 01:03:57;;;;;;;14.27;13.05;;;7.90;99.90;;;;;;5018521;28;20052;-76
2023/11/08 01:06:25;;;;;;;14.40;12.25;;;7.90;99.90;;;;;;5028904;28;20500;-75
2023/11/08 01:08:52;;;;;;;15.32;13.68;;;7.90;99.90;;;;;;5023850;28;20525;-75
2023/11/08 01:11:19;;;;;;;15.68;14.07;;;7.90;99.90;;;;;;5027854;28;20131;-75
2023/11/08 01:13:45;;;;;;;14.48;13.05;;;7.90;99.90;;;;;;5026717;28;20466;-74
2023/11/08 01:16:13;;;;;;;13.52;12.38;;;7.90;99.90;;;;;;5026949;28;20083;-75
2023/11/08 01:18:41;;;;;;;11.05;10.15;;;7.90;99.90;;;;;;5011718;28;20045;-74
2023/11/08 01:21:08;;;;;;;12.57;11.60;;;7.90;99.90;;;;;;5025997;28;20071;-75
2023/11/08 01:23:37;;;;;;;12.77;11.65;;;7.90;99.90;;;;;;5032804;28;20037;-76
2023/11/08 01:26:05;;;;;;;12.77;11.60;;;7.90;99.90;;;;;;5029226;28;20044;-75
2023/11/08 01:28:32;;;;;;;13.18;11.63;;;7.90;99.90;;;;;;5030361;28;20140;-76
2023/11/08 01:30:59;;;;;;;13.57;12.23;;;7.90;99.90;;;;;;5022987;28;20048;-75
2023/11/08 01:33:26;;;;;;;12.65;11.40;;;7.90;99.90;;;;;;5032848;28;20045;-74
2023/11/08 01:35:53;;;;;;;13.05;11.93;;;7.90;99.90;;;;;;5023578;28;20049;-75
2023/11/08 01:38:20;;;;;;;14.80;12.45;;;7.90;99.90;;;;;;5026950;28;20368;-75
2023/11/08 01:40:46;;;;;;;13.68;12.18;;;7.80;99.90;;;;;;5003310;28;20045;-75
2023/11/08 01:43:29;;;;;;;13.52;11.98;;;7.80;99.90;;;;;;5007376;28;20676;-75
2023/11/08 01:46:11;;;;;;;15.30;12.05;;;7.70;99.90;;;;;;5028351;28;20089;-76
2023/11/08 01:48:40;;;;;;;13.15;11.98;;;7.80;99.90;;;;;;5020118;28;20127;-75
2023/11/08 01:51:08;;;;;;;13.48;11.93;;;7.70;99.90;;;;;;5015592;28;20859;-75
2023/11/08 01:53:40;;;;;;;13.60;11.82;;;7.70;99.90;;;;;;5004099;28;20052;-75
2023/11/08 01:56:08;;;;;;;17.73;13.43;;;7.70;99.90;;;;;;5015577;28;21020;-74
2023/11/08 01:58:37;;;;;;;19.77;13.45;;;7.70;99.90;;;;;;5005189;28;20682;-76
2023/11/08 02:01:08;;;;;;;13.40;11.30;;;7.60;99.90;;;;;;5010895;28;20037;-74
2023/11/08 02:03:37;;;;;;;13.35;12.02;;;7.60;99.90;;;;;;5020206;28;20050;-76
2023/11/08 02:06:04;;;;;;;17.77;13.00;;;7.60;99.90;;;;;;5020558;28;20123;-75
2023/11/08 02:08:31;;;;;;;18.17;13.65;;;7.60;99.90;;;;;;5026396;28;20049;-76
2023/11/08 02:10:59;;;;;;;18.27;13.32;;;7.60;99.90;;;;;;5026254;28;20050;-74
2023/11/08 02:13:28;;;;;;;17.92;13.10;;;7.60;99.90;;;;;;5010703;28;20057;-75
2023/11/08 02:15:55;;;;;;;15.75;13.88;;;7.60;99.90;;;;;;5025390;28;20060;-76
2023/11/08 02:18:22;;;;;;;17.27;12.80;;;7.70;99.90;;;;;;5028608;28;20057;-76
2023/11/08 02:20:49;;;;;;;16.65;13.38;;;7.60;99.90;;;;;;5027493;28;20045;-76
2023/11/08 02:23:16;;;;;;;18.13;13.60;;;7.60;99.90;;;;;;5010872;28;20044;-76
2023/11/08 02:25:43;;;;;;;17.20;13.55;;;7.60;99.90;;;;;;5028844;28;20045;-75
2023/11/08 02:28:13;;;;;;;18.00;13.35;;;7.60;99.90;;;;;;5019253;28;20049;-75
2023/11/08 02:30:40;;;;;;;16.13;13.93;;;7.60;99.90;;;;;;5026069;28;20049;-75
2023/11/08 02:33:09;;;;;;;19.75;15.55;;;7.70;99.90;;;;;;5023058;28;20045;-75
2023/11/08 02:35:37;;;;;;;14.68;12.45;;;7.70;99.90;;;;;;5023207;28;20083;-75
2023/11/08 02:38:06;;;;;;;14.30;12.90;;;7.70;99.90;;;;;;5025655;28;20140;-75
2023/11/08 02:40:33;;;;;;;15.68;13.57;;;7.70;99.90;;;;;;5032321;28;20044;-74
2023/11/08 02:43:00;;;;;;;16.23;13.50;;;7.70;99.90;;;;;;5024696;28;20068;-75
2023/11/08 02:45:27;;;;;;;17.15;12.95;;;7.60;99.90;;;;;;5007931;28;21837;-76
2023/11/08 02:47:53;;;;;;;14.98;13.57;;;7.60;99.90;;;;;;5027682;28;20056;-75
2023/11/08 02:50:20;;;;;;;15.32;12.68;;;7.60;99.90;;;;;;5029278;28;20052;-75
2023/11/08 02:52:47;;;;;;;16.63;12.50;;;7.60;99.90;;;;;;5038157;28;20046;-75
2023/11/08 02:55:14;;;;;;;16.30;11.63;;;7.60;99.90;;;;;;5030648;28;20129;-75
2023/11/08 02:57:42;;;;;;;21.85;16.90;;;7.60;99.90;;;;;;5026170;28;20508;-75
2023/11/08 03:00:10;;;;;;;17.50;14.75;;;7.60;99.90;;;;;;5023348;28;20543;-75
2023/11/08 03:02:39;;;;;;;15.63;11.80;;;7.60;99.90;;;;;;5007646;28;20554;-75
2023/11/08 03:05:09;;;;;;;15.65;13.95;;;7.60;99.90;;;;;;5018056;28;20550;-75
2023/11/08 03:07:36;;;;;;;16.67;14.15;;;7.60;99.90;;;;;;5031008;28;20041;-76
2023/11/08 03:10:04;;;;;;;14.38;12.57;;;7.60;99.90;;;;;;5021963;28;20067;-76
2023/11/08 03:12:31;;;;;;;14.65;12.55;;;7.60;99.90;;;;;;5023448;28;20048;-75
2023/11/08 03:14:57;;;;;;;19.45;13.15;;;7.60;99.90;;;;;;5044145;28;20133;-75
2023/11/08 03:17:25;;;;;;;14.90;11.30;;;7.60;99.90;;;;;;5022443;28;20044;-75
2023/11/08 03:19:52;;;;;;;14.07;12.38;;;7.60;99.90;;;;;;5022811;28;20048;-75
2023/11/08 03:22:20;;;;;;;12.32;11.18;;;7.60;99.90;;;;;;5006050;28;20052;-75
2023/11/08 03:24:48;;;;;;;16.00;11.93;;;7.60;99.90;;;;;;5021546;28;20095;-75
2023/11/08 03:27:14;;;;;;;16.20;12.57;;;7.60;99.90;;;;;;5012334;28;20063;-76
2023/11/08 03:29:41;;;;;;;16.42;12.05;;;7.60;99.90;;;;;;5023936;28;20076;-75
2023/11/08 03:32:08;;;;;;;13.45;12.02;;;7.70;99.90;;;;;;5014151;28;20532;-76
2023/11/08 03:34:35;;;;;;;12.70;11.20;;;7.70;99.90;;;;;;5022027;28;20053;-76
2023/11/08 03:37:02;;;;;;;13.13;11.45;;;7.70;99.90;;;;;;5031129;28;20037;-75
2023/11/08 03:39:29;;;;;;;13.35;11.65;;;7.70;99.90;;;;;;5030043;28;20068;-75
2023/11/08 03:41:55;;;;;;;13.00;11.82;;;7.70;99.90;;;;;;5012987;28;20041;-75
2023/11/08 03:44:23;;;;;;;25.27;13.82;;;7.70;99.90;;;;;;5005470;28;20107;-75
2023/11/08 03:46:49;;;;;;;12.95;11.70;;;7.70;99.90;;;;;;5022708;28;20718;-75
2023/11/08 03:49:16;;;;;;;10.63;9.82;;;7.70;99.90;;;;;;5025553;28;20052;-75
2023/11/08 03:51:43;;;;;;;11.70;10.73;;;7.80;99.90;;;;;;5009065;28;20621;-75
2023/11/08 03:54:10;;;;;;;11.63;10.68;;;7.80;99.90;;;;;;5022539;28;20432;-75
2023/11/08 03:56:38;;;;;;;14.90;13.02;;;7.80;99.90;;;;;;5023757;28;20041;-74
2023/11/08 03:59:04;;;;;;;12.20;11.07;;;7.80;99.90;;;;;;5019584;28;20053;-75
2023/11/08 04:01:31;;;;;;;13.10;11.93;;;7.80;99.90;;;;;;5039743;28;20578;-74
2023/11/08 04:03:58;;;;;;;12.45;11.35;;;7.80;99.90;;;;;;5023874;28;20053;-74
2023/11/08 04:06:26;;;;;;;11.55;10.57;;;7.70;99.90;;;;;;5019781;28;20048;-75
2023/11/08 04:08:53;;;;;;;13.23;10.35;;;7.70;99.90;;;;;;5024879;28;20523;-75
2023/11/08 04:11:20;;;;;;;13.02;10.68;;;7.70;99.90;;;;;;5023713;28;20045;-76
2023/11/08 04:13:49;;;;;;;11.25;10.07;;;7.60;99.90;;;;;;5020627;28;20038;-76
2023/11/08 04:16:16;;;;;;;13.82;12.50;;;7.70;99.90;;;;;;5003733;28;20049;-76
2023/11/08 04:18:43;;;;;;;12.00;10.88;;;7.70;99.90;;;;;;5020096;28;20688;-75
2023/11/08 04:21:10;;;;;;;13.40;11.18;;;7.70;99.90;;;;;;5018424;28;20136;-77
2023/11/08 04:23:37;;;;;;;12.95;11.50;;;7.70;99.90;;;;;;5028062;28;20041;-77
2023/11/08 04:26:06;;;;;;;13.40;12.15;;;7.70;99.90;;;;;;5006419;28;20045;-77
2023/11/08 04:28:34;;;;;;;14.15;12.85;;;7.80;99.90;;;;;;5028362;28;20049;-75
2023/11/08 04:31:02;;;;;;;14.63;11.77;;;7.80;99.90;;;;;;5027615;28;20048;-76
2023/11/08 04:33:29;;;;;;;14.20;12.80;;;7.80;99.90;;;;;;5024747;28;20049;-74
2023/11/08 04:35:55;;;;;;;12.88;11.77;;;7.80;99.90;;;;;;5029786;28;20460;-74
2023/11/08 04:38:22;;;;;;;10.85;10.00;;;7.80;99.90;;;;;;5012343;28;20048;-76
2023/11/08 04:40:49;;;;;;;11.60;10.75;;;7.80;99.90;;;;;;5027099;28;20041;-74
2023/11/08 04:43:16;;;;;;;11.45;10.65;;;7.80;99.90;;;;;;5027584;28;20032;-75
2023/11/08 04:45:43;;;;;;;10.60;9.77;;;7.80;99.90;;;;;;5006521;28;20041;-74
2023/11/08 04:48:11;;;;;;;11.90;10.90;;;7.80;99.90;;;;;;5016261;28;20514;-74
2023/11/08 04:50:39;;;;;;;12.38;11.38;;;7.90;99.90;;;;;;5013759;28;20041;-76
2023/11/08 04:53:07;;;;;;;11.85;11.00;;;7.90;99.90;;;;;;5017477;28;20068;-75
2023/11/08 04:55:33;;;;;;;13.35;12.07;;;7.90;99.90;;;;;;5022179;28;20046;-75
2023/11/08 04:58:01;;;;;;;13.13;12.10;;;7.90;99.90;;;;;;5017350;28;20056;-75
2023/11/08 05:00:28;;;;;;;12.85;11.98;;;7.90;99.90;;;;;;5010964;28;20060;-75
2023/11/08 05:02:55;;;;;;;12.55;11.75;;;7.90;99.90;;;;;;5028299;28;20037;-75
2023/11/08 05:05:21;;;;;;;12.50;11.52;;;7.90;99.90;;;;;;5026656;28;20048;-77
2023/11/08 05:07:48;;;;;;;13.63;12.38;;;7.90;99.90;;;;;;5027718;28;20129;-75
2023/11/08 05:10:15;;;;;;;13.38;11.82;;;7.90;99.90;;;;;;5024416;28;20095;-76
2023/11/08 05:12:42;;;;;;;13.75;12.27;;;7.90;99.90;;;;;;5014074;28;20044;-75
2023/11/08 05:15:09;;;;;;;12.55;11.35;;;7.90;99.90;;;;;;5026965;28;20048;-76
2023/11/08 05:17:37;;;;;;;18.35;13.18;;;7.90;99.90;;;;;;5030622;28;20103;-75
2023/11/08 05:20:08;;;;;;;11.93;10.65;;;7.90;99.90;;;;;;5025713;28;20508;-75
2023/11/08 05:22:34;;;;;;;12.88;11.68;;;7.90;99.90;;;;;;5022690;28;20045;-77
2023/11/08 05:25:01;;;;;;;12.95;11.70;;;7.90;99.90;;;;;;5028966;28;20053;-76
2023/11/08 05:27:28;;;;;;;14.10;12.80;;;7.90;99.90;;;;;;5028089;28;21165;-75
2023/11/08 05:29:55;;;;;;;15.50;13.38;;;8.00;99.90;;;;;;5031581;28;20045;-76
2023/11/08 05:32:24;;;;;;;15.05;11.63;;;8.00;99.90;;;;;;5025732;28;20037;-76
2023/11/08 05:34:51;;;;;;;13.40;12.00;;;8.00;99.90;;;;;;5028073;28;20049;-77
2023/11/08 05:37:17;;;;;;;12.27;11.07;;;8.00;99.90;;;;;;5027612;28;20095;-76
2023/11/08 05:39:45;;;;;;;14.05;11.95;;;7.90;99.90;;;;;;5031444;28;20048;-76
2023/11/08 05:42:12;;;;;;;15.43;12.35;;;7.90;99.90;;;;;;5027000;28;20110;-75
2023/11/08 05:44:42;;;;;;;13.52;11.85;;;7.80;99.90;;;;;;5027938;28;20053;-77
2023/11/08 05:47:08;;;;;;;14.57;12.93;;;7.90;99.90;;;;;;5032174;28;20056;-76
2023/11/08 05:49:36;;;;;;;17.67;12.13;;;7.80;99.90;;;;;;5030392;28;20040;-75
2023/11/08 05:52:03;;;;;;;12.70;10.77;;;7.80;99.90;;;;;;5026774;28;20056;-75
2023/11/08 05:54:30;;;;;;;10.90;8.93;;;7.80;99.90;;;;;;5023243;28;21510;-77
2023/11/08 05:56:59;;;;;;;9.45;7.90;;;7.60;99.90;;;;;;5028787;28;20133;-76
2023/11/08 05:59:27;;;;;;;9.82;8.88;;;7.60;99.90;;;;;;5022406;28;20148;-76
2023/11/08 06:01:54;;;;;;;15.45;10.73;;;7.60;99.90;;;;;;5024997;28;20048;-76
2023/11/08 06:04:21;;;;;;;12.35;11.20;;;7.50;99.90;;;;;;5027646;28;20060;-76
2023/11/08 06:06:48;;;;;;;15.15;11.68;;;7.50;99.90;;;;;;5025260;28;20041;-76
2023/11/08 06:09:15;;;;;;;12.88;11.02;;;7.50;99.90;;;;;;5026774;28;20049;-76
2023/11/08 06:11:42;;;;;;;12.73;10.45;;;7.50;99.90;;;;;;5025709;28;20040;-76
2023/11/08 06:14:10;;;;;;;13.18;10.95;;;7.60;99.90;;;;;;5030245;28;20041;-76
2023/11/08 06:16:40;;;;;;;12.30;10.13;;;7.60;99.90;;;;;;5007336;28;20053;-76
2023/11/08 06:19:07;;;;;;;14.80;9.88;;;7.50;99.90;;;;;;5033597;28;20048;-76
2023/11/08 06:21:35;;;;;;;12.18;10.77;;;7.50;99.90;;;;;;5012176;28;20064;-76
2023/11/08 06:24:02;;;;;;;12.27;10.82;;;7.60;99.90;;;;;;5025276;28;20124;-77
2023/11/08 06:26:28;;;;;;;11.57;10.38;;;7.60;99.90;;;;;;5026326;28;20382;-76
2023/11/08 06:28:55;;;;;;;15.52;11.32;;;7.60;99.90;;;;;;5029713;28;20045;-77
2023/11/08 06:31:22;;;;;;;16.38;11.68;;;7.60;99.90;;;;;;5022765;28;20063;-77
2023/11/08 06:33:49;;;;;;;17.38;12.00;;;7.60;99.90;;;;;;5026136;28;20046;-75
2023/11/08 06:36:16;;;;;;;10.75;9.65;;;7.60;99.90;;;;;;5026719;28;20052;-75
2023/11/08 06:38:43;;;;;;;11.38;9.75;;;7.50;99.90;;;;;;5026282;28;20049;-74
2023/11/08 06:41:11;;;;;;;13.43;9.75;;;7.50;99.90;;;;;;5022337;28;20128;-75
2023/11/08 06:43:37;;;;;;;12.32;9.52;;;7.50;99.90;;;;;;5022209;28;20053;-75
2023/11/08 06:46:05;;;;;;;11.57;10.45;;;7.50;99.90;;;;;;5008674;28;20048;-76
2023/11/08 06:48:32;;;;;;;12.80;9.27;;;7.50;99.90;;;;;;5022833;28;20064;-75
2023/11/08 06:50:59;;;;;;;15.02;11.15;;;7.50;99.90;;;;;;5025299;28;20127;-76
2023/11/08 06:53:25;;;;;;;16.20;11.55;;;7.50;99.90;;;;;;5020265;28;20057;-75
2023/11/08 06:55:57;;;;;;;19.98;13.85;;;7.50;99.90;;;;;;5025598;28;20045;-75
2023/11/08 06:58:30;;;;;;;14.30;12.48;;;7.60;99.90;;;;;;5022039;28;20052;-73
2023/11/08 07:00:57;;;;;;;15.82;13.93;;;7.60;99.90;;;;;;5025045;28;20049;-73
2023/11/08 07:03:37;;;;;;;17.17;11.88;;;7.60;99.90;;;;;;5022744;28;20056;-73
2023/11/08 07:06:04;;;;;;;19.83;12.52;;;7.60;99.90;;;;;;5027210;28;20520;-74
2023/11/08 07:08:35;;;;;;;17.27;13.15;;;7.60;99.90;;;;;;5022839;28;20072;-74
2023/11/08 07:11:02;;;;;;;15.13;12.63;;;7.60;99.90;;;;;;5023996;28;20047;-73
2023/11/08 07:13:29;;;;;;;18.83;13.55;;;7.60;99.90;;;;;;5026245;28;20051;-74
2023/11/08 07:15:55;;;;;;;21.55;14.18;;;7.70;99.90;;;;;;5018145;28;20100;-74
2023/11/08 07:18:22;;;;;;;20.52;14.15;;;7.70;99.90;;;;;;5008701;28;20033;-73
2023/11/08 07:20:50;;;;;;;20.10;12.65;;;7.70;99.90;;;;;;5028110;28;20545;-74
2023/11/08 07:23:17;;;;;;;17.02;14.63;;;7.70;99.90;;;;;;5028727;28;20045;-74
2023/11/08 07:26:02;;;;;;;17.45;14.88;;;7.70;99.90;;;;;;5023202;28;20056;-74
2023/11/08 07:28:36;;;;;;;21.30;16.55;;;7.80;99.90;;;;;;5040986;28;20053;-74
2023/11/08 07:31:03;;;;;;;18.52;15.10;;;7.80;99.90;;;;;;5030726;28;20642;-74
2023/11/08 07:33:30;;;;;;;20.83;17.73;;;7.80;99.90;;;;;;5025585;28;20071;-74
2023/11/08 07:35:56;;;;;;;20.73;16.45;;;7.80;99.90;;;;;;5025802;28;20175;-74
2023/11/08 07:38:23;;;;;;;19.80;17.02;;;7.80;99.90;;;;;;5024762;28;20041;-73
2023/11/08 07:40:50;;;;;;;19.60;17.30;;;7.90;99.90;;;;;;5026432;28;20041;-74
2023/11/08 07:43:17;;;;;;;25.30;18.33;;;7.90;99.90;;;;;;5030567;28;20136;-75
2023/11/08 07:45:44;;;;;;;28.05;17.70;;;7.90;99.90;;;;;;5023567;28;20061;-74
2023/11/08 07:48:11;;;;;;;17.42;15.65;;;7.90;99.90;;;;;;5030440;28;20041;-75
2023/11/08 07:50:38;;;;;;;23.63;17.85;;;7.90;99.90;;;;;;5027658;28;20544;-74
2023/11/08 07:53:05;;;;;;;23.88;17.70;;;8.00;99.90;;;;;;5026648;28;20040;-73
2023/11/08 07:55:33;;;;;;;23.05;17.23;;;8.00;99.90;;;;;;5010407;28;20041;-74
2023/11/08 07:58:00;;;;;;;21.75;17.95;;;8.00;99.90;;;;;;5028518;28;20114;-75
2023/11/08 08:00:27;;;;;;;24.58;18.15;;;8.00;99.90;;;;;;5011962;28;20045;-74
2023/11/08 08:02:54;;;;;;;19.55;17.40;;;8.00;99.90;;;;;;5027287;28;20053;-73
2023/11/08 08:05:21;;;;;;;19.83;18.02;;;8.00;99.90;;;;;;5027107;28;20256;-73
2023/11/08 08:07:51;;;;;;;22.50;20.10;;;8.00;99.90;;;;;;5011688;28;20048;-74
2023/11/08 08:10:18;;;;;;;17.30;15.68;;;8.00;99.90;;;;;;5030055;28;20134;-73
2023/11/08 08:12:45;;;;;;;22.88;16.40;;;8.00;99.90;;;;;;5022546;28;20049;-74
2023/11/08 08:15:16;;;;;;;16.60;15.13;;;8.10;99.90;;;;;;5029618;28;20073;-74
2023/11/08 08:17:45;;;;;;;17.35;15.88;;;8.10;99.90;;;;;;5023520;28;20052;-74
2023/11/08 08:20:12;;;;;;;17.00;15.50;;;8.10;99.90;;;;;;5029243;28;20033;-75
2023/11/08 08:22:39;;;;;;;17.30;15.55;;;8.10;99.90;;;;;;5010362;28;20076;-74
2023/11/08 08:25:06;;;;;;;18.75;16.73;;;8.20;99.90;;;;;;5028763;28;20106;-75
2023/11/08 08:27:34;;;;;;;18.52;17.00;;;8.30;99.90;;;;;;5012081;28;20040;-75
2023/11/08 08:30:01;;;;;;;17.45;15.98;;;8.30;99.90;;;;;;5030070;28;20390;-74
2023/11/08 08:32:28;;;;;;;19.70;17.63;;;8.30;99.90;;;;;;5025576;28;20279;-74
2023/11/08 08:34:54;;;;;;;17.45;15.95;;;8.30;99.90;;;;;;5031155;28;20044;-74
2023/11/08 08:37:21;;;;;;;18.90;17.60;;;8.20;99.90;;;;;;5027774;28;20602;-74
2023/11/08 08:39:48;;;;;;;19.38;17.85;;;8.30;99.90;;;;;;5022718;28;20515;-74
2023/11/08 08:42:15;;;;;;;20.63;18.85;;;8.50;99.90;;;;;;5027756;28;20410;-75
2023/11/08 08:44:42;;;;;;;20.08;18.20;;;8.60;99.90;;;;;;5011030;28;20577;-74
2023/11/08 08:47:09;;;;;;;19.20;17.48;;;8.60;99.90;;;;;;5027172;28;20798;-74
2023/11/08 08:49:36;;;;;;;20.55;19.25;;;8.60;99.90;;;;;;5010015;28;20132;-75
2023/11/08 08:52:03;;;;;;;19.95;18.20;;;8.60;99.90;;;;;;5027946;28;20636;-74
2023/11/08 08:54:30;;;;;;;20.38;18.85;;;8.60;99.90;;;;;;5029069;28;20045;-76
2023/11/08 08:57:00;;;;;;;21.20;19.02;;;8.60;99.90;;;;;;5027383;28;20534;-75
2023/11/08 08:59:28;;;;;;;20.23;18.92;;;8.60;99.90;;;;;;5023478;28;20419;-75
2023/11/08 09:01:55;;;;;;;20.83;19.20;;;8.70;99.90;;;;;;5026071;28;20069;-74
2023/11/08 09:04:22;;;;;;;21.60;19.88;;;8.70;99.90;;;;;;5029974;28;20056;-75
2023/11/08 09:06:49;;;;;;;20.38;18.85;;;8.70;99.90;;;;;;5024318;28;20060;-75
2023/11/08 09:09:16;;;;;;;21.10;19.63;;;8.70;99.90;;;;;;5027215;28;20049;-75
2023/11/08 09:11:42;;;;;;;21.88;20.40;;;8.70;99.90;;;;;;5023663;28;20648;-74
2023/11/08 09:14:10;;;;;;;21.42;19.63;;;8.70;99.90;;;;;;5013163;28;20032;-74
2023/11/08 09:16:38;;;;;;;19.88;18.55;;;8.80;99.90;;;;;;5025199;28;20053;-75
2023/11/08 09:19:08;;;;;;;21.98;20.58;;;8.90;99.90;;;;;;5034487;28;20160;-75
2023/11/08 09:21:35;;;;;;;22.17;20.70;;;9.00;99.90;;;;;;5031050;28;20579;-75
2023/11/08 09:24:06;;;;;;;21.67;20.15;;;9.10;99.90;;;;;;5032319;28;20044;-75
2023/11/08 09:26:33;;;;;;;22.23;20.48;;;9.00;99.90;;;;;;5027026;28;20041;-75
2023/11/08 09:29:00;;;;;;;21.25;19.23;;;9.00;99.90;;;;;;5030516;28;20053;-75
2023/11/08 09:31:27;;;;;;;22.95;21.40;;;9.00;99.90;;;;;;5030488;28;20037;-75
2023/11/08 09:33:57;;;;;;;22.35;20.83;;;9.00;99.90;;;;;;5030049;28;20530;-75
2023/11/08 09:36:25;;;;;;;20.20;18.80;;;9.10;99.90;;;;;;5035684;28;20029;-76
2023/11/08 09:38:53;;;;;;;20.42;18.95;;;9.10;99.90;;;;;;5024747;28;20056;-76
2023/11/08 09:41:22;;;;;;;20.30;19.00;;;9.10;99.90;;;;;;5032237;28;20051;-76
2023/11/08 09:43:51;;;;;;;21.42;19.95;;;9.10;99.90;;;;;;5026316;28;21192;-75
2023/11/08 09:46:18;;;;;;;23.15;21.73;;;9.00;99.90;;;;;;5030499;28;20099;-76
2023/11/08 09:48:45;;;;;;;21.27;19.92;;;9.00;99.90;;;;;;5012176;28;20841;-76
2023/11/08 09:51:13;;;;;;;21.73;20.20;;;9.10;99.90;;;;;;5032068;28;20033;-76
2023/11/08 09:53:45;;;;;;;23.63;21.48;;;9.10;99.90;;;;;;5014486;28;20053;-75
2023/11/08 09:56:13;;;;;;;21.42;20.15;;;9.10;99.90;;;;;;5031339;28;20083;-74
2023/11/08 09:58:41;;;;;;;21.75;20.50;;;9.10;99.90;;;;;;5028274;28;20041;-74
2023/11/08 10:01:15;;;;;;;22.40;20.98;;;9.10;99.90;;;;;;5032049;28;20052;-74
2023/11/08 10:03:43;;;;;;;22.35;20.92;;;9.10;99.90;;;;;;5013628;28;20080;-75
2023/11/08 10:06:11;;;;;;;22.00;20.60;;;9.20;99.90;;;;;;5030794;28;20186;-75
2023/11/08 10:08:39;;;;;;;22.98;21.35;;;9.20;99.90;;;;;;5029633;28;20136;-74
2023/11/08 10:11:06;;;;;;;23.17;21.27;;;9.20;99.90;;;;;;5050631;28;20036;-74
2023/11/08 10:13:45;;;;;;;25.73;24.02;;;9.30;99.90;;;;;;5032104;28;20037;-73
2023/11/08 10:16:13;;;;;;;24.63;22.65;;;9.30;99.90;;;;;;5033420;28;20673;-75
2023/11/08 10:18:42;;;;;;;22.90;21.60;;;9.40;99.90;;;;;;5026179;28;20045;-75
2023/11/08 10:21:30;;;;;;;24.88;23.13;;;9.40;99.90;;;;;;5014995;28;20194;-74
2023/11/08 10:24:09;;;;;;;25.00;23.50;;;9.50;99.90;;;;;;5030207;28;20484;-75
2023/11/08 10:26:39;;;;;;;24.50;22.45;;;9.40;99.90;;;;;;5025871;28;20037;-75
2023/11/08 10:29:07;;;;;;;24.08;22.13;;;9.50;99.90;;;;;;5028549;28;20044;-74
2023/11/08 10:31:37;;;;;;;24.58;22.75;;;9.50;99.90;;;;;;5029525;28;20044;-74
2023/11/08 10:34:07;;;;;;;22.88;21.58;;;9.50;99.90;;;;;;5034443;28;20637;-74
2023/11/08 10:36:34;;;;;;;24.08;22.48;;;9.50;99.90;;;;;;5028494;28;20159;-73
2023/11/08 10:39:04;;;;;;;21.90;20.30;;;9.50;99.90;;;;;;5030498;28;20118;-75
2023/11/08 10:41:32;;;;;;;21.67;20.33;;;9.40;99.90;;;;;;5030405;28;20136;-74
2023/11/08 10:44:13;;;;;;;23.52;21.92;;;9.40;99.90;;;;;;5029929;28;20073;-75
2023/11/08 10:46:42;;;;;;;24.95;23.38;;;9.40;99.90;;;;;;5026527;28;20691;-75
2023/11/08 10:49:10;;;;;;;25.48;23.63;;;9.40;99.90;;;;;;5033173;28;20115;-75
2023/11/08 10:51:40;;;;;;;25.58;23.77;;;9.50;99.90;;;;;;5027232;28;20804;-76
2023/11/08 10:54:08;;;;;;;24.02;22.70;;;9.50;99.90;;;;;;5034388;28;20048;-75
2023/11/08 10:56:39;;;;;;;24.50;22.63;;;9.60;99.90;;;;;;5033146;28;20051;-73
2023/11/08 10:59:10;;;;;;;24.88;23.25;;;9.70;99.90;;;;;;5027773;28;20055;-75
2023/11/08 11:01:41;;;;;;;24.85;22.98;;;9.70;99.90;;;;;;5029908;28;20201;-74
2023/11/08 11:04:11;;;;;;;26.95;25.38;;;9.80;99.90;;;;;;5031505;28;20734;-75
2023/11/08 11:06:40;;;;;;;25.33;23.83;;;9.80;99.90;;;;;;5029626;28;20053;-75
2023/11/08 11:09:12;;;;;;;26.08;24.65;;;9.80;99.90;;;;;;5031086;28;20052;-76
2023/11/08 11:11:47;;;;;;;26.83;25.17;;;9.80;99.90;;;;;;5013232;28;20045;-75
2023/11/08 11:14:30;;;;;;;26.15;24.65;;;9.80;99.90;;;;;;5030529;28;20080;-76
2023/11/08 11:17:09;;;;;;;24.58;23.13;;;9.90;99.90;;;;;;5027674;28;20131;-75
2023/11/08 11:19:41;;;;;;;23.25;21.85;;;9.90;99.90;;;;;;5029996;28;20759;-75
2023/11/08 11:22:15;;;;;;;22.85;21.42;;;10.00;99.90;;;;;;5016193;28;20103;-75
2023/11/08 11:24:47;;;;;;;26.15;24.75;;;9.90;99.90;;;;;;5029881;28;20049;-75
2023/11/08 11:27:33;;;;;;;24.73;23.23;;;9.90;99.90;;;;;;5029743;28;20101;-74
2023/11/08 11:30:27;;;;;;;26.80;24.85;;;9.90;99.90;;;;;;5009438;28;20635;-74
2023/11/08 11:32:58;;;;;;;23.65;21.90;;;9.90;99.90;;;;;;5021761;28;20103;-75
2023/11/08 11:35:30;;;;;;;24.02;22.60;;;9.90;99.90;;;;;;5033484;28;20048;-76
2023/11/08 11:38:06;;;;;;;22.25;20.75;;;9.90;99.90;;;;;;5012151;28;20136;-76
2023/11/08 11:40:48;;;;;;;24.48;23.02;;;9.90;99.90;;;;;;5029196;28;20049;-76
2023/11/08 11:43:30;;;;;;;25.55;23.70;;;9.80;99.90;;;;;;5016923;28;20052;-76
2023/11/08 11:46:03;;;;;;;25.50;23.17;;;9.90;99.90;;;;;;5026686;28;20041;-75
2023/11/08 11:48:35;;;;;;;23.10;21.35;;;9.90;99.90;;;;;;5030339;28;20045;-76
2023/11/08 11:51:02;;;;;;;26.50;24.60;;;10.00;99.90;;;;;;5027830;28;20040;-75
2023/11/08 11:53:30;;;;;;;24.88;23.20;;;10.00;99.90;;;;;;5030552;28;20543;-75
2023/11/08 11:56:10;;;;;;;24.85;23.08;;;10.00;99.90;;;;;;5029209;28;20118;-77
2023/11/08 11:58:40;;;;;;;23.98;21.80;;;10.00;99.90;;;;;;5031923;28;20087;-77
2023/11/08 12:01:09;;;;;;;23.40;21.75;;;10.00;99.90;;;;;;5020036;28;20044;-77
2023/11/08 12:03:36;;;;;;;23.92;22.15;;;10.10;99.90;;;;;;5039257;28;20049;-78
2023/11/08 12:06:04;;;;;;;23.58;21.65;;;10.10;99.90;;;;;;5033913;28;20041;-77
2023/11/08 12:08:33;;;;;;;23.63;21.90;;;10.10;99.90;;;;;;5016844;28;20431;-78
2023/11/08 12:11:14;;;;;;;24.42;22.75;;;10.10;99.90;;;;;;5031609;28;20034;-77
2023/11/08 12:13:54;;;;;;;24.20;22.55;;;10.00;99.90;;;;;;5015496;28;20041;-77
2023/11/08 12:16:21;;;;;;;24.45;22.63;;;10.00;99.90;;;;;;5032882;28;20132;-78
2023/11/08 12:18:50;;;;;;;22.52;21.23;;;10.00;99.90;;;;;;5017877;28;20037;-78
2023/11/08 12:21:19;;;;;;;21.83;20.20;;;10.10;99.90;;;;;;5035287;28;20044;-77
2023/11/08 12:23:49;;;;;;;25.80;23.63;;;10.10;99.90;;;;;;5037208;28;20053;-77
2023/11/08 12:26:16;;;;;;;23.52;22.00;;;10.10;99.90;;;;;;5016951;28;20040;-78
2023/11/08 12:28:45;;;;;;;23.65;22.10;;;10.10;99.90;;;;;;5039502;28;20115;-78
2023/11/08 12:31:17;;;;;;;24.63;22.92;;;10.10;99.90;;;;;;5028609;28;20052;-78
2023/11/08 12:33:45;;;;;;;26.08;24.27;;;10.20;99.90;;;;;;5046881;28;20140;-77
2023/11/08 12:36:12;;;;;;;22.67;21.27;;;10.30;99.90;;;;;;5022887;28;20037;-79
2023/11/08 12:38:40;;;;;;;23.40;21.63;;;10.30;99.90;;;;;;5016964;28;20073;-79
2023/11/08 12:41:08;;;;;;;24.08;22.25;;;10.40;99.90;;;;;;5033505;28;20129;-80